createdAt,value
2023-01-17T00:02:15.526Z,2.10
2023-01-17T00:05:01.257Z,2.30
2023-01-17T00:07:47.005Z,1.90
2023-01-17T00:10:17.674Z,2.00
2023-01-17T00:12:48.109Z,1.60
2023-01-17T00:15:19.531Z,1.80
2023-01-17T00:17:47.909Z,2.50
2023-01-17T00:20:34.084Z,1.73
2023-01-17T00:23:20.094Z,2.53
2023-01-17T00:26:05.164Z,2.10
2023-01-17T00:28:32.816Z,2.27
2023-01-17T00:30:59.981Z,2.20
2023-01-17T00:33:27.234Z,2.50
2023-01-17T00:35:54.869Z,2.17
2023-01-17T00:38:22.813Z,2.10
2023-01-17T00:40:51.464Z,2.30
2023-01-17T00:43:38.379Z,2.60
2023-01-17T00:46:24.407Z,2.87
2023-01-17T00:49:10.740Z,2.70
2023-01-17T00:51:56.682Z,2.60
2023-01-17T00:54:42.565Z,3.10
2023-01-17T00:57:29.880Z,3.03
2023-01-17T01:00:15.814Z,3.27
2023-01-17T01:03:01.655Z,3.40
2023-01-17T01:05:47.539Z,3.87
2023-01-17T01:08:37.643Z,3.60
2023-01-17T01:11:27.811Z,3.57
2023-01-17T01:14:15.458Z,3.83
2023-01-17T01:17:01.420Z,3.83
2023-01-17T01:19:47.349Z,3.70
2023-01-17T01:22:33.040Z,3.83
2023-01-17T01:25:19.128Z,3.53
2023-01-17T01:28:05.135Z,4.10
2023-01-17T01:30:52.333Z,3.63
2023-01-17T01:33:19.470Z,3.60
2023-01-17T01:35:48.428Z,3.57
2023-01-17T01:38:16.559Z,3.90
2023-01-17T01:40:45.545Z,3.87
2023-01-17T01:43:15.145Z,3.60
2023-01-17T01:45:46.431Z,3.40
2023-01-17T01:48:21.761Z,3.63
2023-01-17T01:50:50.511Z,3.40
2023-01-17T01:53:19.740Z,3.97
2023-01-17T01:55:49.284Z,3.33
2023-01-17T01:58:20.530Z,3.17
2023-01-17T02:00:50.223Z,3.60
2023-01-17T02:03:20.258Z,2.80
2023-01-17T02:05:48.613Z,3.10
2023-01-17T02:08:18.062Z,2.90
2023-01-17T02:10:46.321Z,3.30
2023-01-17T02:13:16.119Z,3.00
2023-01-17T02:15:51.203Z,2.90
2023-01-17T02:18:23.529Z,3.20
2023-01-17T02:20:58.971Z,3.30
2023-01-17T02:23:44.040Z,3.07
2023-01-17T02:26:26.145Z,3.30
2023-01-17T02:29:05.728Z,3.70
2023-01-17T02:31:38.264Z,3.37
2023-01-17T02:34:08.492Z,4.27
2023-01-17T02:36:38.610Z,3.70
2023-01-17T02:39:10.267Z,4.50
2023-01-17T02:41:39.262Z,4.33
2023-01-17T02:44:09.867Z,4.50
2023-01-17T02:46:46.385Z,4.43
2023-01-17T02:49:14.767Z,4.23
2023-01-17T02:51:52.278Z,4.60
2023-01-17T02:54:35.328Z,5.07
2023-01-17T02:57:12.025Z,4.93
2023-01-17T02:59:45.291Z,5.20
2023-01-17T03:02:18.592Z,5.70
2023-01-17T03:04:50.551Z,5.83
2023-01-17T03:07:21.641Z,5.47
2023-01-17T03:09:53.445Z,5.67
2023-01-17T03:12:21.906Z,5.83
2023-01-17T03:14:50.041Z,5.97
2023-01-17T03:17:19.635Z,6.20
2023-01-17T03:19:47.794Z,5.30
2023-01-17T03:22:15.964Z,6.03
2023-01-17T03:24:44.201Z,5.70
2023-01-17T03:27:12.362Z,5.53
2023-01-17T03:29:40.516Z,6.03
2023-01-17T03:32:08.742Z,5.80
2023-01-17T03:34:38.227Z,5.60
2023-01-17T03:37:06.379Z,6.10
2023-01-17T03:39:34.525Z,5.77
2023-01-17T03:42:02.700Z,5.67
2023-01-17T03:44:30.873Z,5.27
2023-01-17T03:46:59.011Z,5.60
2023-01-17T03:49:27.245Z,5.53
2023-01-17T03:51:56.768Z,5.30
2023-01-17T03:54:24.904Z,5.33
2023-01-17T03:56:53.048Z,5.43
2023-01-17T03:59:21.201Z,5.83
2023-01-17T04:01:49.476Z,5.30
2023-01-17T04:04:17.752Z,5.47
2023-01-17T04:06:47.887Z,6.03
2023-01-17T04:09:17.358Z,6.03
2023-01-17T04:11:45.492Z,5.53
2023-01-17T04:14:13.616Z,5.30
2023-01-17T04:16:41.857Z,4.80
2023-01-17T04:19:11.109Z,5.57
2023-01-17T04:21:39.236Z,4.70
2023-01-17T04:24:07.950Z,4.53
2023-01-17T04:26:37.588Z,4.80
2023-01-17T04:29:05.770Z,4.67
2023-01-17T04:31:33.924Z,5.13
2023-01-17T04:34:02.121Z,5.33
2023-01-17T04:36:30.254Z,4.90
2023-01-17T04:38:58.387Z,4.73
2023-01-17T04:41:26.543Z,5.20
2023-01-17T04:43:56.053Z,4.60
2023-01-17T04:46:24.244Z,4.80
2023-01-17T04:48:52.417Z,5.10
2023-01-17T04:51:20.617Z,4.60
2023-01-17T04:53:48.811Z,5.20
2023-01-17T04:56:16.988Z,4.80
2023-01-17T04:58:45.134Z,5.40
2023-01-17T05:01:14.818Z,4.93
2023-01-17T05:03:43.110Z,4.97
2023-01-17T05:06:11.332Z,5.40
2023-01-17T05:08:39.501Z,4.83
2023-01-17T05:11:07.898Z,5.00
2023-01-17T05:13:36.138Z,5.23
2023-01-17T05:16:04.375Z,5.93
2023-01-17T05:18:33.915Z,5.60
2023-01-17T05:21:05.489Z,4.90
2023-01-17T05:23:33.969Z,4.93
2023-01-17T05:26:05.070Z,4.47
2023-01-17T05:28:33.260Z,4.87
2023-01-17T05:31:01.556Z,4.83
2023-01-17T05:33:29.807Z,5.03
2023-01-17T05:35:59.421Z,4.63
2023-01-17T05:38:27.587Z,5.10
2023-01-17T05:40:55.831Z,5.33
2023-01-17T05:43:23.992Z,4.87
2023-01-17T05:45:52.134Z,5.00
2023-01-17T05:48:20.519Z,5.60
2023-01-17T05:50:49.050Z,5.57
2023-01-17T05:53:18.917Z,5.93
2023-01-17T05:55:47.679Z,4.80
2023-01-17T05:58:17.167Z,5.33
2023-01-17T06:00:45.549Z,4.73
2023-01-17T06:03:13.990Z,5.37
2023-01-17T06:05:42.486Z,5.70
2023-01-17T06:08:10.836Z,4.90
2023-01-17T06:10:40.611Z,6.00
2023-01-17T06:13:09.657Z,5.70
2023-01-17T06:15:38.829Z,5.87
2023-01-17T06:18:07.468Z,6.00
2023-01-17T06:20:35.690Z,6.27
2023-01-17T06:23:04.500Z,6.17
2023-01-17T06:25:33.027Z,6.37
2023-01-17T06:28:03.099Z,6.70
2023-01-17T06:30:31.250Z,6.00
2023-01-17T06:32:59.409Z,6.20
2023-01-17T06:35:27.607Z,7.07
2023-01-17T06:37:58.104Z,6.10
2023-01-17T06:40:26.736Z,6.17
2023-01-17T06:42:54.886Z,6.07
2023-01-17T06:45:24.566Z,6.53
2023-01-17T06:47:52.739Z,5.90
2023-01-17T06:50:21.000Z,6.50
2023-01-17T06:52:55.867Z,7.13
2023-01-17T06:55:24.125Z,6.90
2023-01-17T06:57:52.307Z,7.73
2023-01-17T07:00:20.847Z,6.60
2023-01-17T07:02:52.158Z,6.60
2023-01-17T07:05:20.777Z,6.57
2023-01-17T07:07:49.014Z,7.47
2023-01-17T07:10:17.612Z,6.50
2023-01-17T07:12:45.752Z,6.53
2023-01-17T07:15:14.253Z,6.53
2023-01-17T07:17:42.439Z,6.53
2023-01-17T07:20:13.409Z,6.67
2023-01-17T07:22:41.598Z,7.63
2023-01-17T07:25:10.167Z,7.07
2023-01-17T07:27:38.410Z,7.17
2023-01-17T07:30:07.009Z,7.00
2023-01-17T07:32:35.239Z,6.90
2023-01-17T07:35:03.381Z,7.67
2023-01-17T07:37:32.866Z,6.83
2023-01-17T07:40:02.464Z,7.30
2023-01-17T07:42:30.886Z,7.73
2023-01-17T07:45:00.578Z,7.83
2023-01-17T07:47:28.743Z,7.50
2023-01-17T07:49:56.888Z,7.53
2023-01-17T07:52:25.063Z,7.63
2023-01-17T07:54:54.570Z,7.63
2023-01-17T07:57:22.766Z,7.17
2023-01-17T07:59:52.181Z,7.53
2023-01-17T08:02:21.473Z,6.93
2023-01-17T08:04:50.100Z,7.23
2023-01-17T08:07:18.405Z,7.30
2023-01-17T08:09:49.578Z,7.50
2023-01-17T08:12:19.294Z,7.23
2023-01-17T08:14:47.422Z,6.30
2023-01-17T08:17:16.968Z,6.90
2023-01-17T08:19:45.689Z,6.47
2023-01-17T08:22:13.858Z,5.97
2023-01-17T08:24:43.069Z,6.50
2023-01-17T08:27:11.215Z,5.20
2023-01-17T08:29:42.776Z,5.73
2023-01-17T08:32:10.949Z,5.30
2023-01-17T08:34:39.104Z,4.83
2023-01-17T08:37:07.308Z,4.67
2023-01-17T08:39:35.451Z,5.20
2023-01-17T08:42:03.662Z,5.00
2023-01-17T08:44:31.819Z,4.40
2023-01-17T08:47:01.391Z,4.70
2023-01-17T08:49:29.561Z,3.97
2023-01-17T08:51:57.710Z,4.13
2023-01-17T08:54:25.848Z,3.80
2023-01-17T08:56:55.511Z,3.87
2023-01-17T08:59:23.769Z,4.23
2023-01-17T09:01:52.551Z,4.07
2023-01-17T09:04:22.264Z,4.30
2023-01-17T09:06:50.444Z,3.13
2023-01-17T09:09:18.858Z,3.97
2023-01-17T09:11:47.073Z,3.70
2023-01-17T09:14:15.466Z,3.33
2023-01-17T09:16:43.747Z,3.37
2023-01-17T09:19:11.987Z,3.53
2023-01-17T09:21:41.468Z,3.33
2023-01-17T09:24:09.710Z,3.30
2023-01-17T09:26:37.858Z,3.20
2023-01-17T09:29:06.043Z,3.60
2023-01-17T09:31:34.222Z,3.30
2023-01-17T09:34:02.371Z,3.00
2023-01-17T09:36:31.724Z,3.70
2023-01-17T09:39:01.484Z,3.37
2023-01-17T09:41:31.556Z,3.37
2023-01-17T09:44:03.216Z,3.30
2023-01-17T09:46:32.580Z,3.23
2023-01-17T09:49:04.645Z,3.17
2023-01-17T09:51:33.118Z,3.07
2023-01-17T09:54:03.399Z,3.63
2023-01-17T09:56:33.075Z,3.60
2023-01-17T09:59:10.891Z,3.77
2023-01-17T10:01:44.568Z,3.50
2023-01-17T10:04:19.235Z,3.37
2023-01-17T10:06:52.904Z,3.27
2023-01-17T10:09:38.960Z,3.20
2023-01-17T10:12:15.979Z,3.47
2023-01-17T10:14:58.124Z,3.63
2023-01-17T10:17:36.227Z,3.30
2023-01-17T10:20:09.951Z,3.30
2023-01-17T10:22:51.156Z,2.97
2023-01-17T10:25:33.208Z,3.00
2023-01-17T10:28:06.308Z,3.03
2023-01-17T10:30:36.719Z,3.13
2023-01-17T10:33:08.137Z,3.03
2023-01-17T10:35:38.806Z,3.47
2023-01-17T10:38:09.153Z,3.30
2023-01-17T10:40:42.436Z,4.03
2023-01-17T10:43:15.216Z,3.10
2023-01-17T10:45:45.360Z,3.30
2023-01-17T10:48:17.221Z,3.40
2023-01-17T10:50:50.622Z,3.83
2023-01-17T10:53:24.131Z,3.37
2023-01-17T10:55:54.280Z,3.60
2023-01-17T10:58:23.773Z,2.80
2023-01-17T11:00:53.998Z,2.70
2023-01-17T11:03:23.826Z,3.20
2023-01-17T11:06:08.192Z,2.70
2023-01-17T11:08:51.096Z,2.57
2023-01-17T11:11:19.602Z,2.93
2023-01-17T11:13:50.333Z,2.97
2023-01-17T11:16:21.058Z,2.50
2023-01-17T11:18:50.260Z,2.60
2023-01-17T11:21:20.207Z,2.63
2023-01-17T11:23:49.263Z,2.53
2023-01-17T11:26:24.869Z,2.60
2023-01-17T11:28:54.768Z,2.23
2023-01-17T11:31:27.231Z,2.47
2023-01-17T11:34:09.478Z,2.10
2023-01-17T11:36:37.710Z,2.47
2023-01-17T11:39:06.973Z,2.07
2023-01-17T11:41:36.199Z,2.50
2023-01-17T11:44:21.221Z,2.20
2023-01-17T11:46:49.735Z,2.50
2023-01-17T11:49:24.754Z,2.53
2023-01-17T11:51:56.031Z,2.00
2023-01-17T11:54:26.720Z,2.10
2023-01-17T11:56:58.679Z,2.57
2023-01-17T11:59:31.502Z,2.17
2023-01-17T12:02:06.535Z,2.60
2023-01-17T12:04:37.240Z,2.37
2023-01-17T12:07:26.422Z,2.13
2023-01-17T12:10:00.796Z,2.10
2023-01-17T12:12:52.193Z,1.50
2023-01-17T12:15:27.468Z,1.23
2023-01-17T12:18:06.046Z,1.53
2023-01-17T12:20:38.128Z,1.73
2023-01-17T12:23:20.008Z,1.73
2023-01-17T12:25:54.524Z,1.50
2023-01-17T12:28:32.857Z,1.60
2023-01-17T12:31:07.688Z,1.57
2023-01-17T12:33:39.734Z,1.50
2023-01-17T12:36:17.704Z,1.60
2023-01-17T12:38:46.388Z,1.50
2023-01-17T12:41:18.656Z,1.27
2023-01-17T12:43:46.951Z,1.23
2023-01-17T12:46:21.345Z,1.50
2023-01-17T12:48:52.322Z,1.20
2023-01-17T12:51:24.122Z,1.60
2023-01-17T12:53:57.608Z,1.60
2023-01-17T12:56:28.414Z,1.57
2023-01-17T12:58:57.798Z,1.50
2023-01-17T13:01:31.819Z,1.70
2023-01-17T13:04:04.667Z,1.50
2023-01-17T13:06:44.742Z,1.53
2023-01-17T13:09:14.979Z,1.60
2023-01-17T13:11:46.445Z,1.57
2023-01-17T13:14:14.598Z,1.80
2023-01-17T13:16:46.276Z,1.70
2023-01-17T13:19:17.608Z,1.80
2023-01-17T13:21:48.905Z,1.47
2023-01-17T13:24:23.947Z,1.57
2023-01-17T13:27:01.720Z,1.67
2023-01-17T13:29:35.165Z,1.70
2023-01-17T13:32:07.731Z,1.30
2023-01-17T13:34:54.731Z,1.30
2023-01-17T13:37:43.546Z,1.47
2023-01-17T13:40:29.331Z,1.60
2023-01-17T13:42:59.615Z,1.40
2023-01-17T13:45:29.008Z,1.50
2023-01-17T13:48:12.380Z,1.40
2023-01-17T13:50:52.941Z,1.20
2023-01-17T13:53:54.915Z,1.10
2023-01-17T13:56:31.130Z,1.50
2023-01-17T13:59:02.635Z,1.10
2023-01-17T14:01:45.805Z,1.63
2023-01-17T14:04:14.200Z,1.13
2023-01-17T14:06:45.273Z,1.43
2023-01-17T14:09:15.927Z,0.90
2023-01-17T14:12:01.892Z,1.00
2023-01-17T14:14:37.087Z,1.33
2023-01-17T14:17:25.627Z,1.13
2023-01-17T14:19:54.772Z,1.20
2023-01-17T14:22:26.352Z,1.10
2023-01-17T14:25:02.624Z,1.40
2023-01-17T14:27:34.565Z,1.37
2023-01-17T14:30:04.713Z,1.13
2023-01-17T14:32:34.211Z,1.53
2023-01-17T14:35:02.662Z,1.27
2023-01-17T14:37:47.398Z,1.37
2023-01-17T14:40:16.679Z,1.27
2023-01-17T14:42:44.858Z,1.60
2023-01-17T14:45:15.366Z,1.40
2023-01-17T14:47:45.593Z,1.43
2023-01-17T14:50:20.533Z,2.00
2023-01-17T14:52:50.414Z,1.70
2023-01-17T14:55:20.114Z,1.30
2023-01-17T14:57:55.835Z,1.53
2023-01-17T15:00:25.399Z,1.47
2023-01-17T15:02:54.921Z,1.40
2023-01-17T15:05:24.358Z,1.57
2023-01-17T15:07:54.916Z,1.50
2023-01-17T15:10:23.932Z,1.10
2023-01-17T15:12:52.579Z,1.20
2023-01-17T15:15:32.129Z,1.47
2023-01-17T15:18:10.168Z,1.33
2023-01-17T15:20:39.487Z,1.37
2023-01-17T15:23:12.115Z,1.40
2023-01-17T15:25:40.282Z,1.03
2023-01-17T15:28:11.537Z,1.40
2023-01-17T15:30:39.841Z,1.20
2023-01-17T15:33:08.003Z,1.90
2023-01-17T15:35:36.160Z,1.90
2023-01-17T15:38:05.412Z,1.90
2023-01-17T15:40:37.668Z,2.07
2023-01-17T15:43:06.705Z,2.00
2023-01-17T15:45:36.112Z,1.93
2023-01-17T15:48:19.185Z,2.10
2023-01-17T15:50:47.401Z,2.07
2023-01-17T15:53:30.641Z,2.50
2023-01-17T15:56:00.552Z,1.97
2023-01-17T15:58:29.759Z,1.90
2023-01-17T16:00:58.556Z,1.93
2023-01-17T16:03:29.185Z,1.73
2023-01-17T16:06:00.113Z,2.30
2023-01-17T16:08:30.078Z,1.90
2023-01-17T16:11:02.148Z,1.90
2023-01-17T16:13:31.295Z,2.27
2023-01-17T16:16:17.309Z,2.57
2023-01-17T16:18:46.511Z,3.10
2023-01-17T16:21:22.875Z,2.90
2023-01-17T16:23:51.351Z,2.40
2023-01-17T16:26:20.932Z,2.80
2023-01-17T16:28:49.446Z,3.13
2023-01-17T16:31:17.831Z,3.20
2023-01-17T16:33:46.854Z,3.90
2023-01-17T16:36:16.469Z,3.37
2023-01-17T16:38:45.018Z,4.10
2023-01-17T16:41:13.261Z,3.60
2023-01-17T16:43:42.926Z,4.20
2023-01-17T16:46:12.627Z,3.90
2023-01-17T16:48:40.840Z,4.43
2023-01-17T16:51:09.121Z,4.30
2023-01-17T16:53:37.591Z,5.10
2023-01-17T16:56:11.812Z,4.27
2023-01-17T16:58:40.024Z,4.67
2023-01-17T17:01:11.604Z,4.07
2023-01-17T17:03:39.899Z,3.60
2023-01-17T17:06:08.350Z,4.97
2023-01-17T17:08:36.712Z,5.00
2023-01-17T17:11:13.756Z,4.00
2023-01-17T17:13:42.236Z,5.03
2023-01-17T17:16:14.076Z,4.13
2023-01-17T17:18:42.539Z,4.37
2023-01-17T17:21:10.764Z,4.07
2023-01-17T17:23:39.159Z,4.27
2023-01-17T17:26:07.532Z,4.20
2023-01-17T17:28:36.720Z,4.20
2023-01-17T17:31:06.201Z,3.70
2023-01-17T17:33:36.855Z,3.40
2023-01-17T17:36:05.771Z,3.40
2023-01-17T17:38:35.827Z,3.60
2023-01-17T17:41:09.239Z,3.17
2023-01-17T17:43:38.285Z,4.90
2023-01-17T17:46:06.525Z,4.03
2023-01-17T17:48:36.080Z,3.73
2023-01-17T17:51:04.882Z,3.73
2023-01-17T17:53:33.374Z,3.93
2023-01-17T17:56:05.362Z,4.00
2023-01-17T17:58:34.727Z,3.67
2023-01-17T18:01:06.719Z,4.23
2023-01-17T18:03:36.295Z,4.20
2023-01-17T18:06:05.588Z,4.00
2023-01-17T18:08:33.888Z,4.00
2023-01-17T18:11:02.871Z,4.33
2023-01-17T18:17:21.631Z,4.87
2023-01-17T18:19:52.533Z,4.80
2023-01-17T18:22:20.725Z,4.83
2023-01-17T18:24:48.901Z,5.03
2023-01-17T18:27:17.068Z,4.43
2023-01-17T18:29:45.222Z,5.30
2023-01-17T18:32:13.342Z,5.17
2023-01-17T18:34:42.374Z,5.37
2023-01-17T18:37:11.902Z,4.57
2023-01-17T18:39:40.104Z,4.67
2023-01-17T18:42:08.535Z,4.90
2023-01-17T18:44:36.699Z,4.93
2023-01-17T18:47:05.480Z,4.60
2023-01-17T18:49:34.023Z,4.40
2023-01-17T18:52:02.289Z,5.13
2023-01-17T18:54:31.866Z,5.40
2023-01-17T18:57:01.088Z,5.27
2023-01-17T18:59:29.255Z,5.53
2023-01-17T19:01:58.659Z,6.07
2023-01-17T19:04:28.339Z,5.43
2023-01-17T19:06:56.557Z,6.10
2023-01-17T19:09:24.735Z,5.43
2023-01-17T19:11:54.237Z,5.73
2023-01-17T19:14:22.632Z,5.30
2023-01-17T19:16:50.896Z,5.57
2023-01-17T19:19:19.142Z,5.97
2023-01-17T19:21:47.290Z,5.77
2023-01-17T19:24:15.444Z,5.53
2023-01-17T19:26:43.941Z,4.77
2023-01-17T19:29:13.494Z,5.90
2023-01-17T19:31:42.928Z,4.90
2023-01-17T19:34:13.657Z,5.50
2023-01-17T19:36:41.895Z,6.87
2023-01-17T19:39:10.495Z,6.33
2023-01-17T19:41:42.049Z,7.27
2023-01-17T19:44:10.914Z,8.17
2023-01-17T19:46:40.420Z,8.77
2023-01-17T19:49:09.264Z,8.90
2023-01-17T19:51:39.244Z,9.63
2023-01-17T19:54:08.231Z,8.33
2023-01-17T19:56:36.682Z,9.03
2023-01-17T19:59:05.048Z,8.20
2023-01-17T20:01:34.364Z,8.63
2023-01-17T20:04:04.479Z,8.07
2023-01-17T20:06:34.343Z,7.60
2023-01-17T20:09:02.512Z,8.20
2023-01-17T20:11:30.784Z,8.10
2023-01-17T20:14:00.448Z,8.20
2023-01-17T20:16:29.674Z,7.30
2023-01-17T20:18:58.710Z,8.03
2023-01-17T20:21:29.133Z,8.40
2023-01-17T20:23:58.134Z,7.77
2023-01-17T20:26:30.840Z,7.83
2023-01-17T20:28:59.015Z,8.70
2023-01-17T20:31:28.381Z,8.20
2023-01-17T20:33:59.552Z,7.33
2023-01-17T20:36:29.961Z,7.87
2023-01-17T20:38:58.167Z,7.83
2023-01-17T20:41:27.025Z,8.50
2023-01-17T20:43:56.721Z,7.07
2023-01-17T20:46:25.534Z,7.53
2023-01-17T20:48:54.793Z,6.73
2023-01-17T20:51:23.976Z,7.17
2023-01-17T20:53:54.123Z,7.20
2023-01-17T20:56:22.300Z,7.43
2023-01-17T20:58:51.629Z,6.93
2023-01-17T21:01:21.052Z,6.73
2023-01-17T21:03:51.447Z,6.50
2023-01-17T21:06:20.057Z,6.47
2023-01-17T21:08:48.513Z,6.10
2023-01-17T21:11:18.705Z,6.07
2023-01-17T21:13:48.545Z,6.50
2023-01-17T21:16:17.700Z,5.97
2023-01-17T21:18:48.101Z,6.60
2023-01-17T21:21:16.968Z,6.53
2023-01-17T21:23:45.339Z,6.27
2023-01-17T21:26:14.653Z,6.70
2023-01-17T21:28:45.019Z,7.13
2023-01-17T21:31:20.330Z,8.23
2023-01-17T21:33:48.745Z,7.07
2023-01-17T21:36:17.221Z,7.30
2023-01-17T21:38:49.493Z,7.30
2023-01-17T21:41:17.668Z,7.67
2023-01-17T21:43:47.206Z,6.67
2023-01-17T21:46:15.419Z,7.57
2023-01-17T21:48:44.573Z,7.20
2023-01-17T21:51:13.014Z,10.33
2023-01-17T21:53:41.529Z,9.27
2023-01-17T21:56:30.002Z,9.20
2023-01-17T21:58:59.874Z,8.53
2023-01-17T22:01:29.265Z,8.47
2023-01-17T22:03:58.397Z,19.00
2023-01-17T22:06:27.538Z,10.80
2023-01-17T22:08:56.051Z,8.13
2023-01-17T22:11:25.065Z,7.57
2023-01-17T22:13:53.610Z,10.03
2023-01-17T22:16:24.244Z,8.70
2023-01-17T22:18:52.548Z,7.70
2023-01-17T22:21:21.576Z,7.43
2023-01-17T22:23:50.324Z,8.33
2023-01-17T22:26:18.708Z,6.93
2023-01-17T22:28:47.125Z,7.23
2023-01-17T22:31:16.561Z,6.87
2023-01-17T22:33:47.425Z,7.10
2023-01-17T22:36:16.024Z,6.93
2023-01-17T22:38:44.576Z,7.37
2023-01-17T22:41:16.003Z,8.13
2023-01-17T22:43:44.934Z,6.90
2023-01-17T22:46:14.563Z,9.53
2023-01-17T22:48:43.073Z,8.23
2023-01-17T22:51:13.526Z,9.00
2023-01-17T22:53:42.263Z,9.07
2023-01-17T22:56:12.063Z,9.93
2023-01-17T22:58:42.211Z,10.20
2023-01-17T23:01:11.666Z,9.87
2023-01-17T23:03:40.640Z,8.63
2023-01-17T23:06:09.928Z,7.90
2023-01-17T23:08:39.899Z,8.53
2023-01-17T23:11:40.503Z,7.90
2023-01-17T23:14:09.898Z,8.77
2023-01-17T23:16:56.071Z,8.27
2023-01-17T23:19:24.458Z,7.93
2023-01-17T23:22:10.813Z,8.43
2023-01-17T23:24:42.992Z,7.77
2023-01-17T23:27:30.276Z,8.07
2023-01-17T23:29:58.425Z,9.03
2023-01-17T23:32:26.989Z,8.57
2023-01-17T23:34:55.344Z,8.07
2023-01-17T23:37:44.887Z,7.50
2023-01-17T23:40:14.845Z,7.30
2023-01-17T23:43:01.066Z,7.07
2023-01-17T23:45:29.545Z,6.70
2023-01-17T23:47:57.728Z,6.27
2023-01-17T23:50:25.899Z,6.97
2023-01-17T23:52:54.114Z,7.10
2023-01-17T23:55:24.047Z,6.67
2023-01-17T23:57:52.731Z,7.07
